createdAt,value
2023-04-02T00:00:22.179Z,99.90
2023-04-02T00:03:00.382Z,99.90
2023-04-02T00:05:56.026Z,99.90
2023-04-02T00:08:28.200Z,99.90
2023-04-02T00:11:00.420Z,99.90
2023-04-02T00:13:36.872Z,99.90
2023-04-02T00:16:07.592Z,99.90
2023-04-02T00:18:41.437Z,99.90
2023-04-02T00:21:16.383Z,99.90
2023-04-02T00:23:44.901Z,99.90
2023-04-02T00:26:31.879Z,99.90
2023-04-02T00:29:00.648Z,99.90
2023-04-02T00:31:29.950Z,99.90
2023-04-02T00:33:59.235Z,99.90
2023-04-02T00:36:31.347Z,99.90
2023-04-02T00:39:01.285Z,99.90
2023-04-02T00:41:36.192Z,99.90
2023-04-02T00:44:05.938Z,99.90
2023-04-02T00:46:47.524Z,99.90
2023-04-02T00:49:24.854Z,99.90
2023-04-02T00:51:56.329Z,99.90
2023-04-02T00:54:28.173Z,99.90
2023-04-02T00:56:59.525Z,99.90
2023-04-02T00:59:31.981Z,99.90
2023-04-02T01:02:22.993Z,99.90
2023-04-02T01:04:54.575Z,99.90
2023-04-02T01:07:35.568Z,99.90
2023-04-02T01:10:33.374Z,99.90
2023-04-02T01:13:11.167Z,99.90
2023-04-02T01:15:43.565Z,99.90
2023-04-02T01:18:31.389Z,99.90
2023-04-02T01:21:28.455Z,99.90
2023-04-02T01:24:05.243Z,99.90
2023-04-02T01:26:46.914Z,99.90
2023-04-02T01:29:20.070Z,99.90
2023-04-02T01:31:49.124Z,99.90
2023-04-02T01:34:20.417Z,99.90
2023-04-02T01:37:07.319Z,99.90
2023-04-02T01:39:47.006Z,99.90
2023-04-02T01:42:20.118Z,99.90
2023-04-02T01:44:50.434Z,99.90
2023-04-02T01:47:21.545Z,99.90
2023-04-02T01:49:49.723Z,99.90
2023-04-02T01:52:26.679Z,99.90
2023-04-02T01:54:55.398Z,99.90
2023-04-02T01:57:24.529Z,99.90
2023-04-02T01:59:54.369Z,99.90
2023-04-02T02:02:23.066Z,99.90
2023-04-02T02:04:51.921Z,99.90
2023-04-02T02:07:22.463Z,99.90
2023-04-02T02:09:57.236Z,99.90
2023-04-02T02:12:28.328Z,99.90
2023-04-02T02:14:58.626Z,99.90
2023-04-02T02:17:34.700Z,99.90
2023-04-02T02:20:06.813Z,99.90
2023-04-02T02:22:38.924Z,99.90
2023-04-02T02:25:11.848Z,99.90
2023-04-02T02:28:00.728Z,99.90
2023-04-02T02:30:33.044Z,99.90
2023-04-02T02:33:10.100Z,99.90
2023-04-02T02:35:44.600Z,99.90
2023-04-02T02:38:36.544Z,99.90
2023-04-02T02:41:12.186Z,99.90
2023-04-02T02:43:45.924Z,99.90
2023-04-02T02:46:23.267Z,99.90
2023-04-02T02:48:55.307Z,99.90
2023-04-02T02:51:28.753Z,99.90
2023-04-02T02:54:01.006Z,99.90
2023-04-02T02:56:32.611Z,99.90
2023-04-02T03:01:32.432Z,99.90
2023-04-02T03:04:01.787Z,99.90
2023-04-02T03:06:30.165Z,99.90
2023-04-02T03:09:05.692Z,99.90
2023-04-02T03:11:40.636Z,99.90
2023-04-02T03:14:18.777Z,99.90
2023-04-02T03:16:53.696Z,99.90
2023-04-02T03:19:29.607Z,99.90
2023-04-02T03:22:04.678Z,99.90
2023-04-02T03:24:39.529Z,99.90
2023-04-02T03:27:17.051Z,99.90
2023-04-02T03:29:50.966Z,99.90
2023-04-02T03:32:24.637Z,99.90
2023-04-02T03:34:58.199Z,99.90
2023-04-02T03:37:32.103Z,99.90
2023-04-02T03:40:07.405Z,99.90
2023-04-02T03:42:43.824Z,99.90
2023-04-02T03:45:17.923Z,99.90
2023-04-02T03:47:56.659Z,99.90
2023-04-02T03:50:31.181Z,99.90
2023-04-02T03:53:00.504Z,99.90
2023-04-02T03:55:31.086Z,99.90
2023-04-02T03:58:06.268Z,99.90
2023-04-02T04:00:39.733Z,99.90
2023-04-02T04:03:15.084Z,99.90
2023-04-02T04:05:50.849Z,99.90
2023-04-02T04:08:22.429Z,99.90
2023-04-02T04:10:53.878Z,99.90
2023-04-02T04:13:29.169Z,99.90
2023-04-02T04:16:01.261Z,99.90
2023-04-02T04:18:38.149Z,99.90
2023-04-02T04:21:13.165Z,99.90
2023-04-02T04:23:49.874Z,99.90
2023-04-02T04:26:24.616Z,99.90
2023-04-02T04:29:05.558Z,99.90
2023-04-02T04:31:39.873Z,99.90
2023-04-02T04:34:16.107Z,99.90
2023-04-02T04:36:54.335Z,99.90
2023-04-02T04:39:29.778Z,99.90
2023-04-02T04:42:04.158Z,99.90
2023-04-02T04:44:41.856Z,99.90
2023-04-02T04:47:14.795Z,99.90
2023-04-02T04:49:49.072Z,99.90
2023-04-02T04:52:21.689Z,99.90
2023-04-02T04:54:51.061Z,99.90
2023-04-02T04:57:31.522Z,99.90
2023-04-02T05:00:08.061Z,99.90
2023-04-02T05:02:45.615Z,99.90
2023-04-02T05:05:32.133Z,99.90
2023-04-02T05:08:08.597Z,99.90
2023-04-02T05:10:44.179Z,99.90
2023-04-02T05:13:18.624Z,99.90
2023-04-02T05:15:54.943Z,99.90
2023-04-02T05:18:29.437Z,99.90
2023-04-02T05:21:04.243Z,99.90
2023-04-02T05:23:37.797Z,99.90
2023-04-02T05:26:10.453Z,99.90
2023-04-02T05:28:46.228Z,99.90
2023-04-02T05:31:20.776Z,99.90
2023-04-02T05:33:51.507Z,99.90
2023-04-02T05:36:26.835Z,99.90
2023-04-02T05:38:56.820Z,99.90
2023-04-02T05:41:28.614Z,99.90
2023-04-02T05:44:07.859Z,99.90
2023-04-02T05:46:45.727Z,99.90
2023-04-02T05:49:23.143Z,99.90
2023-04-02T05:51:57.910Z,99.90
2023-04-02T05:54:31.518Z,99.90
2023-04-02T05:57:04.100Z,99.90
2023-04-02T05:59:36.648Z,99.90
2023-04-02T06:02:15.821Z,99.90
2023-04-02T06:04:49.774Z,99.90
2023-04-02T06:07:22.898Z,99.90
2023-04-02T06:09:53.691Z,99.90
2023-04-02T06:12:30.402Z,99.90
2023-04-02T06:14:58.902Z,99.90
2023-04-02T06:17:29.070Z,99.90
2023-04-02T06:19:59.732Z,99.90
2023-04-02T06:22:39.627Z,99.90
2023-04-02T06:25:17.768Z,99.90
2023-04-02T06:27:48.749Z,99.90
2023-04-02T06:30:20.563Z,99.90
2023-04-02T06:32:48.553Z,99.90
2023-04-02T06:35:17.746Z,99.90
2023-04-02T06:37:49.718Z,99.90
2023-04-02T06:40:33.037Z,99.90
2023-04-02T06:43:02.145Z,99.90
2023-04-02T06:45:34.914Z,99.90
2023-04-02T06:48:04.080Z,99.90
2023-04-02T06:50:40.458Z,99.90
2023-04-02T06:53:21.570Z,99.90
2023-04-02T06:55:54.076Z,99.90
2023-04-02T06:58:22.768Z,99.90
2023-04-02T07:00:52.184Z,99.90
2023-04-02T07:03:25.001Z,99.90
2023-04-02T07:05:53.348Z,99.90
2023-04-02T07:08:23.351Z,99.90
2023-04-02T07:10:51.818Z,99.90
2023-04-02T07:13:23.805Z,99.90
2023-04-02T07:15:56.785Z,99.90
2023-04-02T07:18:28.768Z,99.90
2023-04-02T07:20:57.082Z,99.90
2023-04-02T07:23:27.427Z,99.90
2023-04-02T07:25:56.626Z,99.90
2023-04-02T07:28:25.028Z,99.90
2023-04-02T07:30:54.519Z,99.90
2023-04-02T07:33:25.722Z,99.90
2023-04-02T07:35:56.146Z,99.90
2023-04-02T07:38:24.513Z,99.90
2023-04-02T07:40:54.267Z,99.90
2023-04-02T07:43:23.085Z,99.90
2023-04-02T07:45:51.719Z,99.90
2023-04-02T07:48:19.699Z,99.90
2023-04-02T07:50:48.144Z,99.90
2023-04-02T07:53:30.241Z,99.90
2023-04-02T07:56:01.015Z,99.90
2023-04-02T07:58:29.089Z,99.90
2023-04-02T08:00:57.361Z,99.90
2023-04-02T08:03:26.107Z,99.90
2023-04-02T08:05:55.467Z,99.90
2023-04-02T08:08:25.883Z,99.90
2023-04-02T08:10:55.533Z,91.00
2023-04-02T08:13:25.101Z,1.00
2023-04-02T08:15:55.606Z,1.00
2023-04-02T08:18:24.369Z,1.00
2023-04-02T08:20:53.451Z,1.00
2023-04-02T08:23:22.308Z,1.00
2023-04-02T08:25:51.645Z,1.00
2023-04-02T08:28:19.701Z,1.00
2023-04-02T08:30:51.268Z,1.00
2023-04-02T08:33:19.696Z,1.00
2023-04-02T08:35:48.567Z,1.00
2023-04-02T08:38:18.000Z,1.00
2023-04-02T08:40:49.120Z,1.00
2023-04-02T08:43:54.465Z,1.00
2023-04-02T08:46:28.330Z,1.00
2023-04-02T08:48:59.385Z,1.00
2023-04-02T08:51:30.822Z,1.00
2023-04-02T08:54:03.877Z,1.00
2023-04-02T08:56:50.438Z,1.00
2023-04-02T08:59:29.386Z,1.00
2023-04-02T09:02:06.863Z,1.00
2023-04-02T09:04:36.996Z,1.00
2023-04-02T09:07:05.489Z,1.00
2023-04-02T09:09:38.927Z,1.00
2023-04-02T09:12:15.740Z,1.00
2023-04-02T09:14:45.866Z,99.90
2023-04-02T09:17:20.435Z,99.90
2023-04-02T09:19:56.033Z,99.90
2023-04-02T09:22:26.576Z,99.90
2023-04-02T09:24:55.825Z,99.90
2023-04-02T09:27:27.354Z,99.90
2023-04-02T09:30:00.839Z,99.90
2023-04-02T09:32:56.901Z,99.90
2023-04-02T09:35:27.263Z,99.90
2023-04-02T09:38:31.663Z,99.90
2023-04-02T09:41:02.627Z,99.90
2023-04-02T09:43:33.237Z,99.90
2023-04-02T09:46:05.291Z,99.90
2023-04-02T09:48:39.821Z,1.00
2023-04-02T09:51:14.490Z,1.00
2023-04-02T09:53:44.901Z,1.00
2023-04-02T09:56:17.088Z,1.00
2023-04-02T09:58:46.860Z,1.00
2023-04-02T10:01:31.812Z,1.00
2023-04-02T10:04:03.439Z,1.00
2023-04-02T10:06:32.659Z,1.00
2023-04-02T10:09:24.244Z,1.00
2023-04-02T10:11:54.951Z,1.00
2023-04-02T10:14:26.714Z,1.00
2023-04-02T10:16:58.263Z,1.00
2023-04-02T10:19:42.077Z,1.00
2023-04-02T10:22:16.505Z,1.00
2023-04-02T10:24:44.968Z,1.00
2023-04-02T10:27:27.872Z,1.00
2023-04-02T10:30:20.653Z,1.00
2023-04-02T10:32:57.060Z,1.00
2023-04-02T10:35:40.758Z,1.00
2023-04-02T10:38:23.012Z,1.00
2023-04-02T10:41:01.598Z,1.00
2023-04-02T10:43:47.520Z,99.90
2023-04-02T10:46:24.974Z,99.90
2023-04-02T10:49:01.869Z,99.90
2023-04-02T10:51:39.583Z,99.90
2023-04-02T10:54:28.011Z,99.90
2023-04-02T10:57:04.032Z,99.90
2023-04-02T10:59:36.902Z,99.90
2023-04-02T11:02:19.813Z,99.90
2023-04-02T11:04:49.008Z,99.90
2023-04-02T11:07:23.986Z,99.90
2023-04-02T11:09:56.533Z,99.90
2023-04-02T11:12:36.588Z,99.90
2023-04-02T11:15:17.505Z,99.90
2023-04-02T11:17:46.261Z,99.90
2023-04-02T11:20:51.598Z,99.90
2023-04-02T11:23:22.154Z,99.90
2023-04-02T11:25:52.459Z,99.90
2023-04-02T11:28:29.592Z,99.90
2023-04-02T11:30:59.612Z,99.90
2023-04-02T11:33:44.766Z,99.90
2023-04-02T11:36:53.005Z,99.90
2023-04-02T11:39:54.343Z,99.90
2023-04-02T11:42:28.628Z,99.90
2023-04-02T11:44:59.537Z,99.90
2023-04-02T11:47:28.670Z,99.90
2023-04-02T11:50:07.826Z,99.90
2023-04-02T11:52:39.883Z,99.90
2023-04-02T11:55:28.578Z,99.90
2023-04-02T11:58:32.447Z,99.90
2023-04-02T12:01:19.310Z,99.90
2023-04-02T12:04:11.442Z,99.90
2023-04-02T12:06:52.476Z,99.90
2023-04-02T12:09:23.713Z,99.90
2023-04-02T12:11:55.674Z,99.90
2023-04-02T12:14:46.868Z,99.90
2023-04-02T12:17:19.812Z,99.90
2023-04-02T12:19:53.107Z,99.90
2023-04-02T12:22:24.365Z,99.90
2023-04-02T12:24:59.169Z,99.90
2023-04-02T12:27:30.377Z,99.90
2023-04-02T12:30:13.734Z,99.90
2023-04-02T12:32:41.895Z,99.90
2023-04-02T12:35:28.948Z,99.90
2023-04-02T12:37:57.154Z,99.90
2023-04-02T12:40:26.259Z,99.90
2023-04-02T12:42:56.037Z,99.90
2023-04-02T12:45:29.318Z,99.90
2023-04-02T12:47:58.866Z,99.90
2023-04-02T12:50:27.153Z,99.90
2023-04-02T12:52:58.879Z,99.90
2023-04-02T12:55:28.113Z,99.90
2023-04-02T12:57:59.273Z,99.90
2023-04-02T13:00:36.485Z,99.90
2023-04-02T13:03:18.952Z,99.90
2023-04-02T13:05:52.153Z,99.90
2023-04-02T13:08:23.512Z,99.90
2023-04-02T13:10:56.698Z,99.90
2023-04-02T13:13:30.176Z,99.90
2023-04-02T13:16:06.546Z,99.90
2023-04-02T13:18:37.693Z,99.90
2023-04-02T13:21:07.307Z,99.90
2023-04-02T13:23:38.459Z,99.90
2023-04-02T13:26:27.817Z,99.90
2023-04-02T13:29:03.344Z,99.90
2023-04-02T13:31:33.418Z,99.90
2023-04-02T13:34:02.506Z,99.90
2023-04-02T13:36:30.665Z,99.90
2023-04-02T13:38:58.808Z,99.90
2023-04-02T13:41:28.754Z,99.90
2023-04-02T13:43:59.698Z,99.90
2023-04-02T13:46:31.084Z,99.90
2023-04-02T13:49:00.139Z,99.90
2023-04-02T13:51:35.748Z,99.90
2023-04-02T13:54:04.166Z,99.90
2023-04-02T13:56:32.213Z,99.90
2023-04-02T13:59:00.600Z,99.90
2023-04-02T14:01:30.259Z,99.90
2023-04-02T14:03:58.971Z,99.90
2023-04-02T14:06:37.648Z,99.90
2023-04-02T14:09:14.321Z,99.90
2023-04-02T14:11:53.503Z,99.90
2023-04-02T14:14:38.701Z,99.90
2023-04-02T14:17:19.561Z,99.90
2023-04-02T14:20:05.974Z,99.90
2023-04-02T14:22:45.732Z,99.90
2023-04-02T14:25:20.487Z,99.90
2023-04-02T14:27:54.495Z,99.90
2023-04-02T14:30:28.067Z,99.90
2023-04-02T14:33:05.599Z,99.90
2023-04-02T14:35:37.265Z,99.90
2023-04-02T14:38:23.017Z,99.90
2023-04-02T14:40:54.391Z,99.90
2023-04-02T14:43:26.273Z,99.90
2023-04-02T14:45:59.559Z,99.90
2023-04-02T14:48:47.861Z,99.90
2023-04-02T14:51:24.518Z,99.90
2023-04-02T14:54:01.309Z,99.90
2023-04-02T14:56:33.036Z,99.90
2023-04-02T14:59:13.420Z,99.90
2023-04-02T15:01:44.919Z,99.90
2023-04-02T15:04:19.056Z,99.90
2023-04-02T15:06:52.440Z,99.90
2023-04-02T15:09:25.370Z,99.90
2023-04-02T15:11:58.070Z,99.90
2023-04-02T15:14:32.691Z,99.90
2023-04-02T15:17:00.858Z,99.90
2023-04-02T15:19:30.169Z,99.90
2023-04-02T15:22:20.515Z,99.90
2023-04-02T15:24:58.261Z,99.90
2023-04-02T15:27:37.112Z,99.90
2023-04-02T15:30:09.788Z,99.90
2023-04-02T15:32:39.866Z,99.90
2023-04-02T15:35:32.592Z,99.90
2023-04-02T15:38:06.565Z,99.90
2023-04-02T15:40:52.364Z,99.90
2023-04-02T15:43:24.414Z,99.90
2023-04-02T15:46:00.579Z,99.90
2023-04-02T15:48:48.007Z,99.90
2023-04-02T15:51:28.364Z,99.90
2023-04-02T15:54:03.948Z,99.90
2023-04-02T15:56:39.850Z,99.90
2023-04-02T15:59:29.360Z,99.90
2023-04-02T16:02:03.979Z,99.90
2023-04-02T16:04:44.013Z,99.90
2023-04-02T16:07:31.906Z,99.90
2023-04-02T16:10:08.623Z,99.90
2023-04-02T16:12:40.572Z,99.90
2023-04-02T16:15:15.479Z,99.90
2023-04-02T16:17:46.956Z,99.90
2023-04-02T16:20:22.001Z,99.90
2023-04-02T16:23:00.377Z,99.90
2023-04-02T16:25:32.536Z,99.90
2023-04-02T16:28:09.548Z,99.90
2023-04-02T16:30:48.661Z,99.90
2023-04-02T16:33:28.724Z,99.90
2023-04-02T16:36:09.365Z,99.90
2023-04-02T16:38:51.381Z,99.90
2023-04-02T16:41:27.205Z,99.90
2023-04-02T16:44:05.798Z,99.90
2023-04-02T16:46:42.292Z,99.90
2023-04-02T16:49:23.500Z,99.90
2023-04-02T16:52:02.111Z,99.90
2023-04-02T16:54:41.715Z,99.90
2023-04-02T16:57:25.704Z,99.90
2023-04-02T17:00:02.056Z,99.90
2023-04-02T17:02:43.277Z,99.90
2023-04-02T17:05:26.766Z,99.90
2023-04-02T17:08:01.770Z,99.90
2023-04-02T17:10:32.960Z,99.90
2023-04-02T17:13:19.306Z,99.90
2023-04-02T17:15:54.916Z,99.90
2023-04-02T17:18:25.682Z,99.90
2023-04-02T17:20:54.549Z,99.90
2023-04-02T17:23:23.012Z,99.90
2023-04-02T17:25:56.923Z,99.90
2023-04-02T17:28:29.586Z,99.90
2023-04-02T17:31:01.241Z,1.00
2023-04-02T17:33:29.251Z,1.00
2023-04-02T17:36:11.866Z,1.00
2023-04-02T17:38:48.748Z,1.00
2023-04-02T17:41:24.809Z,99.90
2023-04-02T17:43:59.258Z,1.00
2023-04-02T17:46:36.430Z,99.90
2023-04-02T17:49:13.718Z,99.90
2023-04-02T17:51:46.357Z,99.90
2023-04-02T17:54:33.691Z,1.00
2023-04-02T17:57:20.620Z,96.90
2023-04-02T18:00:01.834Z,1.00
2023-04-02T18:02:40.600Z,99.90
2023-04-02T18:05:18.201Z,99.90
2023-04-02T18:07:53.010Z,1.00
2023-04-02T18:10:26.316Z,1.00
2023-04-02T18:13:07.833Z,1.00
2023-04-02T18:15:56.167Z,99.90
2023-04-02T18:18:39.182Z,1.00
2023-04-02T18:21:16.659Z,23.00
2023-04-02T18:23:56.879Z,99.90
2023-04-02T18:26:33.734Z,9.50
2023-04-02T18:29:11.626Z,1.00
2023-04-02T18:31:49.841Z,1.00
2023-04-02T18:34:51.581Z,1.00
2023-04-02T18:37:27.467Z,1.00
2023-04-02T18:40:11.540Z,99.90
2023-04-02T18:42:53.483Z,99.90
2023-04-02T18:45:31.584Z,99.90
2023-04-02T18:48:11.364Z,1.00
2023-04-02T18:50:41.899Z,1.00
2023-04-02T18:53:13.738Z,1.00
2023-04-02T18:55:46.407Z,99.90
2023-04-02T18:58:18.975Z,1.00
2023-04-02T19:00:51.253Z,1.00
2023-04-02T19:03:24.483Z,99.90
2023-04-02T19:05:59.435Z,99.90
2023-04-02T19:08:33.148Z,99.90
2023-04-02T19:11:05.109Z,99.90
2023-04-02T19:13:33.746Z,99.90
2023-04-02T19:16:26.008Z,99.90
2023-04-02T19:19:01.265Z,99.90
2023-04-02T19:21:39.332Z,99.90
2023-04-02T19:24:28.305Z,1.00
2023-04-02T19:27:04.772Z,1.00
2023-04-02T19:29:48.062Z,1.00
2023-04-02T19:32:20.462Z,99.90
2023-04-02T19:34:58.032Z,99.90
2023-04-02T19:37:33.914Z,99.90
2023-04-02T19:40:20.492Z,1.00
2023-04-02T19:42:50.309Z,99.90
2023-04-02T19:45:34.875Z,99.90
2023-04-02T19:48:12.658Z,1.00
2023-04-02T19:50:41.182Z,1.00
2023-04-02T19:53:09.491Z,1.00
2023-04-02T19:55:38.319Z,99.90
2023-04-02T19:58:18.677Z,99.90
2023-04-02T20:00:48.146Z,99.90
2023-04-02T20:03:17.620Z,99.90
2023-04-02T20:05:45.643Z,13.70
2023-04-02T20:08:13.668Z,1.00
2023-04-02T20:10:41.965Z,1.00
2023-04-02T20:13:10.681Z,1.00
2023-04-02T20:15:40.365Z,99.90
2023-04-02T20:18:09.463Z,99.90
2023-04-02T20:20:39.358Z,99.90
2023-04-02T20:23:08.492Z,99.90
2023-04-02T20:25:36.639Z,99.90
2023-04-02T20:28:05.283Z,99.90
2023-04-02T20:30:34.160Z,99.90
2023-04-02T20:33:02.404Z,79.70
2023-04-02T20:35:34.428Z,1.00
2023-04-02T20:38:06.744Z,1.00
2023-04-02T20:40:35.439Z,1.00
2023-04-02T20:43:03.509Z,1.00
2023-04-02T20:45:31.424Z,1.00
2023-04-02T20:47:59.733Z,25.70
2023-04-02T20:50:27.912Z,24.60
2023-04-02T20:52:59.365Z,15.00
2023-04-02T20:55:28.731Z,99.90
2023-04-02T20:57:57.248Z,87.30
2023-04-02T21:00:25.449Z,1.00
2023-04-02T21:02:53.506Z,1.00
2023-04-02T21:05:21.606Z,1.00
2023-04-02T21:07:49.657Z,9.40
2023-04-02T21:10:17.841Z,1.00
2023-04-02T21:12:47.113Z,3.70
2023-04-02T21:15:15.257Z,1.00
2023-04-02T21:17:43.556Z,1.00
2023-04-02T21:20:13.082Z,86.00
2023-04-02T21:22:41.383Z,20.20
2023-04-02T21:25:10.432Z,1.00
2023-04-02T21:27:38.705Z,8.20
2023-04-02T21:30:09.692Z,1.00
2023-04-02T21:32:37.936Z,14.10
2023-04-02T21:35:07.765Z,7.30
2023-04-02T21:37:35.848Z,1.00
2023-04-02T21:40:05.252Z,1.00
2023-04-02T21:42:33.263Z,1.00
2023-04-02T21:45:02.248Z,1.00
2023-04-02T21:47:31.992Z,1.00
2023-04-02T21:49:59.895Z,1.00
2023-04-02T21:52:27.956Z,1.00
2023-04-02T21:54:56.181Z,1.00
2023-04-02T21:57:24.188Z,1.00
2023-04-02T21:59:54.308Z,1.00
2023-04-02T22:02:22.354Z,1.00
2023-04-02T22:04:52.250Z,1.00
2023-04-02T22:07:20.275Z,1.00
2023-04-02T22:09:48.247Z,1.00
2023-04-02T22:12:16.990Z,1.00
2023-04-02T22:14:45.247Z,1.00
2023-04-02T22:17:13.465Z,1.00
2023-04-02T22:19:41.454Z,1.00
2023-04-02T22:22:11.381Z,1.00
2023-04-02T22:24:39.444Z,1.00
2023-04-02T22:27:07.533Z,1.00
2023-04-02T22:29:35.490Z,1.00
2023-04-02T22:32:04.746Z,1.00
2023-04-02T22:34:33.081Z,1.00
2023-04-02T22:37:01.328Z,99.90
2023-04-02T22:39:30.768Z,99.90
2023-04-02T22:41:58.817Z,1.00
2023-04-02T22:44:27.240Z,99.90
2023-04-02T22:46:55.591Z,99.90
2023-04-02T22:49:23.619Z,99.90
2023-04-02T22:51:51.800Z,99.90
2023-04-02T22:54:19.890Z,99.90
2023-04-02T22:56:49.545Z,99.90
2023-04-02T22:59:17.876Z,1.00
2023-04-02T23:01:48.462Z,1.00
2023-04-02T23:04:16.586Z,99.90
2023-04-02T23:06:46.422Z,99.90
2023-04-02T23:09:14.607Z,99.90
2023-04-02T23:11:42.925Z,99.90
2023-04-02T23:14:12.299Z,99.90
2023-04-02T23:16:40.254Z,99.90
2023-04-02T23:19:08.130Z,99.90
2023-04-02T23:21:36.097Z,99.90
2023-04-02T23:24:04.635Z,99.90
2023-04-02T23:26:35.282Z,99.90
2023-04-02T23:29:03.612Z,99.90
2023-04-02T23:31:33.317Z,1.00
2023-04-02T23:34:01.484Z,1.00
2023-04-02T23:36:33.128Z,1.00
2023-04-02T23:39:04.034Z,1.00
2023-04-02T23:41:32.899Z,1.00
2023-04-02T23:44:01.231Z,1.00
2023-04-02T23:46:29.921Z,1.00
2023-04-02T23:49:00.468Z,1.00
2023-04-02T23:51:28.667Z,1.00
2023-04-02T23:53:57.184Z,1.00
2023-04-02T23:56:25.797Z,97.60
2023-04-02T23:58:53.820Z,99.90
